Fort Thomson, Canada
Current Conditions -  °F | °C
As of 10:00 PM on Monday 20 Oct 2014 (Local Time) from CYCO Reporting Station
Light Snow Light Snow  
Wind Chill:   Ceiling: 1600
Heat Index: 27°   Visibility: 1mi
Dew Point: 25°   Wind: 35mph
Humidity: 93%   Direction: 80°E
Pressure: 29.38"   Gusts: 43mph
Location:  68.78°N, 114.78°W
Report Text: CYCO 210400Z 08030G37KT 1SM -SN BLSN OVC016 M03/M04 A2938 RMKBLSN4SC4 /S03/ SLP952
Loading
Personal Weather Stations






























Interactive Weather Map
Tropical Storm Tracking
New forecast layout! Learn more

10-Day Weather Forecast

Advertisements
Track Severe Weather on mobile